sensor_id;sensor_type;location;lat;lon;timestamp;pressure;altitude;pressure_sealevel;temperature;humidity
77631;BME280;66798;47.370;8.552;2023-08-12T05:32:43;96977.28;;;22.33;68.32
77631;BME280;66798;47.370;8.552;2023-08-12T05:35:09;96972.69;;;22.33;68.28
77631;BME280;66798;47.370;8.552;2023-08-12T05:37:35;96972.50;;;22.38;68.33
77631;BME280;66798;47.370;8.552;2023-08-12T05:40:00;96972.16;;;22.40;68.03
77631;BME280;66798;47.370;8.552;2023-08-12T05:42:26;96973.38;;;22.42;68.43
77631;BME280;66798;47.370;8.552;2023-08-12T05:44:51;96980.78;;;22.45;68.23
77631;BME280;66798;47.370;8.552;2023-08-12T05:47:17;96967.94;;;22.51;67.72
77631;BME280;66798;47.370;8.552;2023-08-12T05:49:42;96973.84;;;22.57;68.14
77631;BME280;66798;47.370;8.552;2023-08-12T05:52:08;96980.09;;;22.73;68.47
77631;BME280;66798;47.370;8.552;2023-08-12T05:54:33;96982.00;;;22.85;68.32
77631;BME280;66798;47.370;8.552;2023-08-12T05:56:59;96981.44;;;23.04;67.48
77631;BME280;66798;47.370;8.552;2023-08-12T05:59:24;96980.84;;;23.23;67.01
77631;BME280;66798;47.370;8.552;2023-08-12T06:01:49;96977.59;;;23.29;66.45
77631;BME280;66798;47.370;8.552;2023-08-12T06:04:15;96982.59;;;23.31;66.51
77631;BME280;66798;47.370;8.552;2023-08-12T06:06:41;96973.53;;;23.36;66.14
77631;BME280;66798;47.370;8.552;2023-08-12T06:09:07;96978.56;;;23.37;66.15
77631;BME280;66798;47.370;8.552;2023-08-12T06:11:33;96985.25;;;23.43;65.66
77631;BME280;66798;47.370;8.552;2023-08-12T06:13:58;96986.53;;;23.62;66.31
77631;BME280;66798;47.370;8.552;2023-08-12T06:16:24;96980.06;;;24.07;65.46
77631;BME280;66798;47.370;8.552;2023-08-12T06:18:49;96975.88;;;24.53;64.15
77631;BME280;66798;47.370;8.552;2023-08-12T06:21:15;96979.53;;;24.96;62.76
77631;BME280;66798;47.370;8.552;2023-08-12T06:23:40;96976.84;;;24.96;61.16
77631;BME280;66798;47.370;8.552;2023-08-12T06:26:05;96986.63;;;25.40;60.35
77631;BME280;66798;47.370;8.552;2023-08-12T06:28:31;96978.69;;;25.28;59.23
77631;BME280;66798;47.370;8.552;2023-08-12T06:30:56;96971.75;;;25.66;58.85
77631;BME280;66798;47.370;8.552;2023-08-12T06:33:22;96964.84;;;25.68;58.13
77631;BME280;66798;47.370;8.552;2023-08-12T06:35:50;96977.59;;;25.91;57.83
77631;BME280;66798;47.370;8.552;2023-08-12T06:38:15;96978.00;;;26.12;56.54
77631;BME280;66798;47.370;8.552;2023-08-12T06:40:42;96977.47;;;26.03;56.95
77631;BME280;66798;47.370;8.552;2023-08-12T06:43:07;96981.94;;;25.95;57.44
77631;BME280;66798;47.370;8.552;2023-08-12T06:45:34;96970.72;;;25.74;57.28
77631;BME280;66798;47.370;8.552;2023-08-12T06:48:00;96972.84;;;25.64;57.63
77631;BME280;66798;47.370;8.552;2023-08-12T06:50:27;96977.56;;;25.68;57.77
77631;BME280;66798;47.370;8.552;2023-08-12T06:52:53;96972.22;;;25.71;57.95
77631;BME280;66798;47.370;8.552;2023-08-12T06:55:18;96977.19;;;25.69;58.28
77631;BME280;66798;47.370;8.552;2023-08-12T06:57:44;96969.19;;;25.73;58.64
77631;BME280;66798;47.370;8.552;2023-08-12T07:00:10;96977.69;;;25.75;58.37
77631;BME280;66798;47.370;8.552;2023-08-12T07:02:35;96985.34;;;25.92;59.79
77631;BME280;66798;47.370;8.552;2023-08-12T07:05:01;96982.84;;;26.26;56.95
77631;BME280;66798;47.370;8.552;2023-08-12T07:07:26;96981.09;;;26.14;56.83
77631;BME280;66798;47.370;8.552;2023-08-12T07:09:52;96986.44;;;26.11;57.45
77631;BME280;66798;47.370;8.552;2023-08-12T07:12:17;96986.63;;;25.59;58.47
77631;BME280;66798;47.370;8.552;2023-08-12T07:14:43;96983.84;;;25.95;57.88
77631;BME280;66798;47.370;8.552;2023-08-12T07:17:08;96983.47;;;26.16;57.20
77631;BME280;66798;47.370;8.552;2023-08-12T07:19:34;96985.19;;;26.51;57.66
77631;BME280;66798;47.370;8.552;2023-08-12T07:21:59;96986.38;;;26.76;55.36
77631;BME280;66798;47.370;8.552;2023-08-12T07:24:24;96995.00;;;26.85;56.37
77631;BME280;66798;47.370;8.552;2023-08-12T07:26:50;96995.88;;;26.93;55.13
77631;BME280;66798;47.370;8.552;2023-08-12T07:29:15;96996.72;;;26.97;55.86
77631;BME280;66798;47.370;8.552;2023-08-12T07:31:41;96988.59;;;26.97;54.82
77631;BME280;66798;47.370;8.552;2023-08-12T07:34:06;96983.28;;;26.51;55.36
77631;BME280;66798;47.370;8.552;2023-08-12T07:36:32;96989.28;;;26.64;55.83
77631;BME280;66798;47.370;8.552;2023-08-12T07:39:00;96984.59;;;26.61;57.42
77631;BME280;66798;47.370;8.552;2023-08-12T07:41:26;96991.91;;;26.37;56.47
77631;BME280;66798;47.370;8.552;2023-08-12T07:43:53;96988.19;;;26.45;56.70
77631;BME280;66798;47.370;8.552;2023-08-12T07:46:18;96981.66;;;26.23;56.79
77631;BME280;66798;47.370;8.552;2023-08-12T07:48:44;96989.88;;;26.31;56.94
77631;BME280;66798;47.370;8.552;2023-08-12T07:51:09;96990.47;;;26.43;56.96
77631;BME280;66798;47.370;8.552;2023-08-12T07:53:35;96990.66;;;26.54;56.49
77631;BME280;66798;47.370;8.552;2023-08-12T07:56:00;96995.06;;;26.43;55.90
77631;BME280;66798;47.370;8.552;2023-08-12T07:58:26;96987.38;;;26.41;55.73
77631;BME280;66798;47.370;8.552;2023-08-12T08:00:54;96985.78;;;26.40;55.81
77631;BME280;66798;47.370;8.552;2023-08-12T08:03:20;96987.59;;;26.33;55.99
77631;BME280;66798;47.370;8.552;2023-08-12T08:05:45;96987.06;;;26.46;55.08
77631;BME280;66798;47.370;8.552;2023-08-12T08:08:13;96995.72;;;26.56;56.21
77631;BME280;66798;47.370;8.552;2023-08-12T08:10:38;96988.75;;;26.55;55.05
77631;BME280;66798;47.370;8.552;2023-08-12T08:13:04;96990.25;;;26.79;53.60
77631;BME280;66798;47.370;8.552;2023-08-12T08:15:29;96997.63;;;27.08;54.28
77631;BME280;66798;47.370;8.552;2023-08-12T08:17:54;96994.19;;;27.38;52.24
77631;BME280;66798;47.370;8.552;2023-08-12T08:20:20;96998.34;;;27.62;51.75
77631;BME280;66798;47.370;8.552;2023-08-12T08:22:45;97008.88;;;27.41;51.60
77631;BME280;66798;47.370;8.552;2023-08-12T08:25:12;97012.47;;;27.82;51.11
77631;BME280;66798;47.370;8.552;2023-08-12T08:27:38;97007.81;;;28.13;50.56
77631;BME280;66798;47.370;8.552;2023-08-12T08:30:05;97009.69;;;28.46;51.12
77631;BME280;66798;47.370;8.552;2023-08-12T08:32:30;97014.22;;;28.83;49.79
77631;BME280;66798;47.370;8.552;2023-08-12T08:34:55;97018.66;;;29.09;48.02
77631;BME280;66798;47.370;8.552;2023-08-12T08:37:21;97021.53;;;29.38;48.45
77631;BME280;66798;47.370;8.552;2023-08-12T08:39:46;97021.78;;;30.02;47.42
77631;BME280;66798;47.370;8.552;2023-08-12T08:42:14;97024.06;;;29.86;46.40
77631;BME280;66798;47.370;8.552;2023-08-12T08:44:41;97021.75;;;29.95;46.55
77631;BME280;66798;47.370;8.552;2023-08-12T08:47:08;97032.28;;;30.11;46.32
77631;BME280;66798;47.370;8.552;2023-08-12T08:49:34;97029.59;;;30.18;45.85
